sensor_id;sensor_type;location;lat;lon;timestamp;pressure;altitude;pressure_sealevel;temperature;humidity
76586;BME280;65251;51.022;13.736;2023-04-30T00:00:08;99661.91;;;11.63;70.81
76586;BME280;65251;51.022;13.736;2023-04-30T00:00:40;99664.38;;;11.64;70.96
76586;BME280;65251;51.022;13.736;2023-04-30T00:01:11;99664.38;;;11.64;71.40
76586;BME280;65251;51.022;13.736;2023-04-30T00:01:42;99668.06;;;11.63;71.11
76586;BME280;65251;51.022;13.736;2023-04-30T00:02:13;99666.22;;;11.64;70.83
76586;BME280;65251;51.022;13.736;2023-04-30T00:02:44;99673.41;;;11.63;70.96
76586;BME280;65251;51.022;13.736;2023-04-30T00:03:15;99667.25;;;11.63;71.07
76586;BME280;65251;51.022;13.736;2023-04-30T00:03:46;99674.25;;;11.64;71.30
76586;BME280;65251;51.022;13.736;2023-04-30T00:04:17;99666.44;;;11.62;71.09
76586;BME280;65251;51.022;13.736;2023-04-30T00:04:48;99670.53;;;11.65;71.32
76586;BME280;65251;51.022;13.736;2023-04-30T00:05:20;99668.28;;;11.62;71.28
76586;BME280;65251;51.022;13.736;2023-04-30T00:05:51;99670.13;;;11.61;71.32
76586;BME280;65251;51.022;13.736;2023-04-30T00:06:21;99668.47;;;11.60;71.39
76586;BME280;65251;51.022;13.736;2023-04-30T00:06:53;99667.88;;;11.58;71.42
76586;BME280;65251;51.022;13.736;2023-04-30T00:07:25;99672.16;;;11.59;71.45
76586;BME280;65251;51.022;13.736;2023-04-30T00:07:56;99664.97;;;11.60;71.17
76586;BME280;65251;51.022;13.736;2023-04-30T00:08:27;99667.06;;;11.58;71.09
76586;BME280;65251;51.022;13.736;2023-04-30T00:08:59;99673.00;;;11.60;71.18
76586;BME280;65251;51.022;13.736;2023-04-30T00:09:30;99673.00;;;11.60;71.49
76586;BME280;65251;51.022;13.736;2023-04-30T00:10:02;99665.81;;;11.60;71.30
76586;BME280;65251;51.022;13.736;2023-04-30T00:10:36;99671.97;;;11.61;70.76
76586;BME280;65251;51.022;13.736;2023-04-30T00:11:06;99678.13;;;11.61;70.97
76586;BME280;65251;51.022;13.736;2023-04-30T00:11:38;99668.72;;;11.59;70.78
76586;BME280;65251;51.022;13.736;2023-04-30T00:12:09;99675.06;;;11.58;70.75
76586;BME280;65251;51.022;13.736;2023-04-30T00:12:40;99671.38;;;11.59;70.85
76586;BME280;65251;51.022;13.736;2023-04-30T00:13:11;99675.66;;;11.60;70.57
76586;BME280;65251;51.022;13.736;2023-04-30T00:13:43;99673.00;;;11.60;70.90
76586;BME280;65251;51.022;13.736;2023-04-30T00:14:15;99671.38;;;11.59;71.06
76586;BME280;65251;51.022;13.736;2023-04-30T00:14:46;99676.47;;;11.60;71.10
76586;BME280;65251;51.022;13.736;2023-04-30T00:15:17;99671.38;;;11.59;71.04
76586;BME280;65251;51.022;13.736;2023-04-30T00:15:48;99671.97;;;11.61;70.94
76586;BME280;65251;51.022;13.736;2023-04-30T00:16:20;99669.72;;;11.58;70.61
76586;BME280;65251;51.022;13.736;2023-04-30T00:16:51;99675.06;;;11.58;70.97
76586;BME280;65251;51.022;13.736;2023-04-30T00:17:23;99673.41;;;11.57;70.73
76586;BME280;65251;51.022;13.736;2023-04-30T00:17:53;99672.75;;;11.48;71.04
76586;BME280;65251;51.022;13.736;2023-04-30T00:18:24;99672.56;;;11.50;71.21
76586;BME280;65251;51.022;13.736;2023-04-30T00:18:56;99682.63;;;11.48;71.74
76586;BME280;65251;51.022;13.736;2023-04-30T00:19:27;99675.44;;;11.48;71.27
76586;BME280;65251;51.022;13.736;2023-04-30T00:19:57;99675.63;;;11.47;71.59
76586;BME280;65251;51.022;13.736;2023-04-30T00:20:29;99673.78;;;11.47;71.17
76586;BME280;65251;51.022;13.736;2023-04-30T00:21:00;99673.78;;;11.47;71.86
76586;BME280;65251;51.022;13.736;2023-04-30T00:21:31;99680.16;;;11.46;71.02
76586;BME280;65251;51.022;13.736;2023-04-30T00:22:03;99674.81;;;11.46;71.29
76586;BME280;65251;51.022;13.736;2023-04-30T00:22:35;99677.69;;;11.45;71.20
76586;BME280;65251;51.022;13.736;2023-04-30T00:23:06;99673.16;;;11.45;71.19
76586;BME280;65251;51.022;13.736;2023-04-30T00:23:38;99679.31;;;11.46;71.49
76586;BME280;65251;51.022;13.736;2023-04-30T00:24:08;99684.84;;;11.44;70.89
76586;BME280;65251;51.022;13.736;2023-04-30T00:24:39;99683.00;;;11.45;71.45
76586;BME280;65251;51.022;13.736;2023-04-30T00:25:11;99680.34;;;11.45;71.04
76586;BME280;65251;51.022;13.736;2023-04-30T00:25:43;99684.22;;;11.42;70.82
76586;BME280;65251;51.022;13.736;2023-04-30T00:26:14;99673.56;;;11.42;71.29
76586;BME280;65251;51.022;13.736;2023-04-30T00:26:45;99681.38;;;11.44;71.24
76586;BME280;65251;51.022;13.736;2023-04-30T00:27:17;99681.38;;;11.44;71.22
76586;BME280;65251;51.022;13.736;2023-04-30T00:27:48;99672.72;;;11.35;71.10
76586;BME280;65251;51.022;13.736;2023-04-30T00:28:19;99686.91;;;11.42;71.04
76586;BME280;65251;51.022;13.736;2023-04-30T00:28:50;99688.94;;;11.40;71.37
76586;BME280;65251;51.022;13.736;2023-04-30T00:29:21;99684.44;;;11.40;71.05
76586;BME280;65251;51.022;13.736;2023-04-30T00:29:52;99676.63;;;11.39;71.90
76586;BME280;65251;51.022;13.736;2023-04-30T00:30:24;99688.94;;;11.40;71.09
76586;BME280;65251;51.022;13.736;2023-04-30T00:30:55;99684.03;;;11.37;71.01
76586;BME280;65251;51.022;13.736;2023-04-30T00:31:25;99683.00;;;11.38;71.04
76586;BME280;65251;51.022;13.736;2023-04-30T00:31:57;99675.59;;;11.33;70.81
76586;BME280;65251;51.022;13.736;2023-04-30T00:32:28;99687.91;;;11.41;70.85
76586;BME280;65251;51.022;13.736;2023-04-30T00:32:59;99685.44;;;11.39;70.95
76586;BME280;65251;51.022;13.736;2023-04-30T00:33:31;99681.16;;;11.38;70.61
76586;BME280;65251;51.022;13.736;2023-04-30T00:34:01;99692.84;;;11.37;70.44
76586;BME280;65251;51.022;13.736;2023-04-30T00:34:32;99681.34;;;11.37;70.71
76586;BME280;65251;51.022;13.736;2023-04-30T00:35:04;99685.69;;;11.38;70.64
76586;BME280;65251;51.022;13.736;2023-04-30T00:35:35;99680.34;;;11.38;70.72
76586;BME280;65251;51.022;13.736;2023-04-30T00:36:06;99683.84;;;11.38;70.58
76586;BME280;65251;51.022;13.736;2023-04-30T00:36:38;99687.09;;;11.40;69.93
76586;BME280;65251;51.022;13.736;2023-04-30T00:37:09;99688.13;;;11.39;70.23
76586;BME280;65251;51.022;13.736;2023-04-30T00:37:40;99692.03;;;11.37;70.00
76586;BME280;65251;51.022;13.736;2023-04-30T00:38:12;99687.72;;;11.36;70.11
76586;BME280;65251;51.022;13.736;2023-04-30T00:38:43;99687.09;;;11.34;70.27
76586;BME280;65251;51.022;13.736;2023-04-30T00:39:13;99688.75;;;11.35;70.03
76586;BME280;65251;51.022;13.736;2023-04-30T00:39:45;99684.63;;;11.32;69.96
76586;BME280;65251;51.022;13.736;2023-04-30T00:40:16;99686.28;;;11.33;70.14
76586;BME280;65251;51.022;13.736;2023-04-30T00:40:48;99697.75;;;11.34;69.68
76586;BME280;65251;51.022;13.736;2023-04-30T00:41:21;99686.47;;;11.32;69.48
76586;BME280;65251;51.022;13.736;2023-04-30T00:41:52;99681.13;;;11.32;69.49
76586;BME280;65251;51.022;13.736;2023-04-30T00:42:23;99691.81;;;11.32;69.75
76586;BME280;65251;51.022;13.736;2023-04-30T00:42:55;99690.78;;;11.33;69.93
76586;BME280;65251;51.022;13.736;2023-04-30T00:43:25;99696.31;;;11.31;69.66
76586;BME280;65251;51.022;13.736;2023-04-30T00:43:56;99687.47;;;11.31;70.00
76586;BME280;65251;51.022;13.736;2023-04-30T00:44:28;99694.03;;;11.28;69.52
76586;BME280;65251;51.022;13.736;2023-04-30T00:44:59;99689.72;;;11.27;70.28
76586;BME280;65251;51.022;13.736;2023-04-30T00:45:29;99693.84;;;11.30;69.94
76586;BME280;65251;51.022;13.736;2023-04-30T00:46:01;99693.41;;;11.26;69.47
76586;BME280;65251;51.022;13.736;2023-04-30T00:46:33;99689.72;;;11.27;70.03
76586;BME280;65251;51.022;13.736;2023-04-30T00:47:03;99692.16;;;11.22;69.99
76586;BME280;65251;51.022;13.736;2023-04-30T00:47:35;99698.75;;;11.26;70.47
76586;BME280;65251;51.022;13.736;2023-04-30T00:48:06;99694.81;;;11.22;69.86
76586;BME280;65251;51.022;13.736;2023-04-30T00:48:37;99695.66;;;11.23;70.09
76586;BME280;65251;51.022;13.736;2023-04-30T00:49:09;99696.66;;;11.22;69.90
76586;BME280;65251;51.022;13.736;2023-04-30T00:49:40;99695.84;;;11.21;70.12
76586;BME280;65251;51.022;13.736;2023-04-30T00:50:11;99702.63;;;11.17;70.70
76586;BME280;65251;51.022;13.736;2023-04-30T00:50:45;99695.63;;;11.16;70.21
76586;BME280;65251;51.022;13.736;2023-04-30T00:51:15;99701.38;;;11.13;70.25
76586;BME280;65251;51.022;13.736;2023-04-30T00:51:46;99703.19;;;11.13;70.32
76586;BME280;65251;51.022;13.736;2023-04-30T00:52:19;99698.06;;;11.11;70.26
76586;BME280;65251;51.022;13.736;2023-04-30T00:52:50;99703.41;;;11.11;70.17
76586;BME280;65251;51.022;13.736;2023-04-30T00:53:21;99702.97;;;11.08;70.53
76586;BME280;65251;51.022;13.736;2023-04-30T00:53:53;99693.72;;;11.03;70.25
76586;BME280;65251;51.022;13.736;2023-04-30T00:54:24;99697.38;;;11.02;70.33
76586;BME280;65251;51.022;13.736;2023-04-30T00:54:55;99699.44;;;11.00;70.29
76586;BME280;65251;51.022;13.736;2023-04-30T00:55:27;99696.34;;;10.97;70.75
76586;BME280;65251;51.022;13.736;2023-04-30T00:55:59;99707.22;;;10.95;70.49
76586;BME280;65251;51.022;13.736;2023-04-30T00:56:30;99702.47;;;10.91;70.72
76586;BME280;65251;51.022;13.736;2023-04-30T00:57:04;99704.25;;;10.84;71.13
76586;BME280;65251;51.022;13.736;2023-04-30T00:57:38;99702.59;;;10.83;70.92
76586;BME280;65251;51.022;13.736;2023-04-30T00:58:10;99696.25;;;10.77;70.66
76586;BME280;65251;51.022;13.736;2023-04-30T00:58:42;99712.84;;;10.79;70.82
76586;BME280;65251;51.022;13.736;2023-04-30T00:59:13;99711.59;;;10.75;71.22
76586;BME280;65251;51.022;13.736;2023-04-30T00:59:45;99715.28;;;10.74;71.31
76586;BME280;65251;51.022;13.736;2023-04-30T01:00:17;99710.16;;;10.73;71.25
76586;BME280;65251;51.022;13.736;2023-04-30T01:00:48;99716.69;;;10.70;71.12
76586;BME280;65251;51.022;13.736;2023-04-30T01:01:19;99716.06;;;10.68;71.03
76586;BME280;65251;51.022;13.736;2023-04-30T01:01:52;99712.75;;;10.66;71.90
76586;BME280;65251;51.022;13.736;2023-04-30T01:02:23;99717.25;;;10.65;72.00
76586;BME280;65251;51.022;13.736;2023-04-30T01:02:54;99718.47;;;10.63;72.21
76586;BME280;65251;51.022;13.736;2023-04-30T01:03:27;99702.25;;;10.58;72.33
76586;BME280;65251;51.022;13.736;2023-04-30T01:03:59;99716.59;;;10.57;72.28
76586;BME280;65251;51.022;13.736;2023-04-30T01:04:30;99712.66;;;10.53;71.73
76586;BME280;65251;51.022;13.736;2023-04-30T01:05:02;99711.03;;;10.52;71.97
76586;BME280;65251;51.022;13.736;2023-04-30T01:05:34;99716.53;;;10.50;71.93
76586;BME280;65251;51.022;13.736;2023-04-30T01:06:05;99718.56;;;10.48;71.80
76586;BME280;65251;51.022;13.736;2023-04-30T01:06:36;99717.09;;;10.46;72.87
76586;BME280;65251;51.022;13.736;2023-04-30T01:07:07;99715.47;;;10.45;72.94
76586;BME280;65251;51.022;13.736;2023-04-30T01:07:39;99714.81;;;10.43;73.08
76586;BME280;65251;51.022;13.736;2023-04-30T01:08:14;99708.88;;;10.41;72.38
76586;BME280;65251;51.022;13.736;2023-04-30T01:08:47;99712.50;;;10.33;73.12
76586;BME280;65251;51.022;13.736;2023-04-30T01:09:18;99712.97;;;10.37;73.01
76586;BME280;65251;51.022;13.736;2023-04-30T01:09:49;99723.81;;;10.35;72.10
76586;BME280;65251;51.022;13.736;2023-04-30T01:10:27;99717.00;;;10.32;72.31
76586;BME280;65251;51.022;13.736;2023-04-30T01:11:11;99726.03;;;10.31;72.59
76586;BME280;65251;51.022;13.736;2023-04-30T01:11:55;99729.69;;;10.30;73.24
76586;BME280;65251;51.022;13.736;2023-04-30T01:12:38;99722.09;;;10.27;73.40
76586;BME280;65251;51.022;13.736;2023-04-30T01:13:19;99723.84;;;10.20;73.03
76586;BME280;65251;51.022;13.736;2023-04-30T01:14:03;99724.50;;;10.22;72.94
76586;BME280;65251;51.022;13.736;2023-04-30T01:14:53;99728.81;;;10.23;72.71
76586;BME280;65251;51.022;13.736;2023-04-30T01:15:35;99731.66;;;10.22;73.67
76586;BME280;65251;51.022;13.736;2023-04-30T01:16:14;99727.16;;;10.22;73.26
76586;BME280;65251;51.022;13.736;2023-04-30T01:16:53;99731.84;;;10.20;72.88
76586;BME280;65251;51.022;13.736;2023-04-30T01:17:32;99730.75;;;10.15;73.03
76586;BME280;65251;51.022;13.736;2023-04-30T01:18:08;99729.94;;;10.14;73.13
76586;BME280;65251;51.022;13.736;2023-04-30T01:18:48;99727.66;;;10.11;73.57
76586;BME280;65251;51.022;13.736;2023-04-30T01:19:34;99729.47;;;10.11;73.06
76586;BME280;65251;51.022;13.736;2023-04-30T01:20:08;99729.84;;;10.08;73.78
76586;BME280;65251;51.022;13.736;2023-04-30T01:20:47;99731.06;;;10.05;73.66
76586;BME280;65251;51.022;13.736;2023-04-30T01:21:19;99734.53;;;10.06;74.07
76586;BME280;65251;51.022;13.736;2023-04-30T01:21:51;99735.94;;;10.01;73.76
76586;BME280;65251;51.022;13.736;2023-04-30T01:22:35;99731.63;;;10.00;73.56
76586;BME280;65251;51.022;13.736;2023-04-30T01:23:18;99732.84;;;9.98;74.88
76586;BME280;65251;51.022;13.736;2023-04-30T01:24:27;99742.41;;;9.92;74.41
76586;BME280;65251;51.022;13.736;2023-04-30T01:25:24;99730.94;;;9.92;75.15
76586;BME280;65251;51.022;13.736;2023-04-30T01:26:10;99735.81;;;9.88;74.91
76586;BME280;65251;51.022;13.736;2023-04-30T01:26:52;99733.53;;;9.85;74.27
76586;BME280;65251;51.022;13.736;2023-04-30T01:27:49;99734.53;;;9.84;75.19
76586;BME280;65251;51.022;13.736;2023-04-30T01:28:23;99733.88;;;9.82;74.32
76586;BME280;65251;51.022;13.736;2023-04-30T01:28:56;99737.75;;;9.80;75.31
76586;BME280;65251;51.022;13.736;2023-04-30T01:29:29;99737.31;;;9.76;75.83
76586;BME280;65251;51.022;13.736;2023-04-30T01:30:04;99738.97;;;9.77;75.76
76586;BME280;65251;51.022;13.736;2023-04-30T01:30:36;99741.81;;;9.76;74.71
76586;BME280;65251;51.022;13.736;2023-04-30T01:31:13;99744.47;;;9.76;75.48
76586;BME280;65251;51.022;13.736;2023-04-30T01:31:45;99744.03;;;9.72;75.17
76586;BME280;65251;51.022;13.736;2023-04-30T01:32:16;99745.03;;;9.71;75.78
76586;BME280;65251;51.022;13.736;2023-04-30T01:32:47;99744.59;;;9.67;75.42
76586;BME280;65251;51.022;13.736;2023-04-30T01:33:18;99747.25;;;9.67;75.23
76586;BME280;65251;51.022;13.736;2023-04-30T01:33:49;99744.41;;;9.69;76.18
76586;BME280;65251;51.022;13.736;2023-04-30T01:34:20;99745.41;;;9.68;76.45
76586;BME280;65251;51.022;13.736;2023-04-30T01:34:51;99741.56;;;9.71;75.46
76586;BME280;65251;51.022;13.736;2023-04-30T01:35:34;99743.38;;;9.70;75.88
76586;BME280;65251;51.022;13.736;2023-04-30T01:36:37;99741.09;;;9.67;75.35
76586;BME280;65251;51.022;13.736;2023-04-30T01:37:21;99739.63;;;9.64;76.25
76586;BME280;65251;51.022;13.736;2023-04-30T01:38:06;99750.28;;;9.64;76.99
76586;BME280;65251;51.022;13.736;2023-04-30T01:38:55;99751.28;;;9.63;76.95
76586;BME280;65251;51.022;13.736;2023-04-30T01:39:42;99745.09;;;9.56;77.04
76586;BME280;65251;51.022;13.736;2023-04-30T01:40:23;99741.97;;;9.53;76.67
76586;BME280;65251;51.022;13.736;2023-04-30T01:41:09;99734.34;;;9.50;76.49
76586;BME280;65251;51.022;13.736;2023-04-30T01:41:52;99753.78;;;9.50;76.45
76586;BME280;65251;51.022;13.736;2023-04-30T01:42:33;99744.72;;;9.45;76.84
76586;BME280;65251;51.022;13.736;2023-04-30T01:43:16;99736.69;;;9.38;77.41
76586;BME280;65251;51.022;13.736;2023-04-30T01:43:55;99748.38;;;9.44;77.49
76586;BME280;65251;51.022;13.736;2023-04-30T01:44:43;99748.97;;;9.39;78.00
76586;BME280;65251;51.022;13.736;2023-04-30T01:45:31;99752.81;;;9.37;77.52
76586;BME280;65251;51.022;13.736;2023-04-30T01:46:13;99750.53;;;9.33;77.16
76586;BME280;65251;51.022;13.736;2023-04-30T01:46:57;99757.84;;;9.31;77.72
76586;BME280;65251;51.022;13.736;2023-04-30T01:47:38;99750.88;;;9.30;77.57
76586;BME280;65251;51.022;13.736;2023-04-30T01:48:21;99755.19;;;9.31;77.42
76586;BME280;65251;51.022;13.736;2023-04-30T01:48:58;99753.19;;;9.33;77.11
76586;BME280;65251;51.022;13.736;2023-04-30T01:49:45;99746.75;;;9.28;76.92
76586;BME280;65251;51.022;13.736;2023-04-30T01:50:28;99752.34;;;9.33;77.46
76586;BME280;65251;51.022;13.736;2023-04-30T01:51:08;99759.88;;;9.29;76.78
76586;BME280;65251;51.022;13.736;2023-04-30T01:51:44;99752.63;;;9.23;77.55
76586;BME280;65251;51.022;13.736;2023-04-30T01:52:22;99762.88;;;9.26;77.83
76586;BME280;65251;51.022;13.736;2023-04-30T01:52:58;99765.72;;;9.25;77.17
76586;BME280;65251;51.022;13.736;2023-04-30T01:53:35;99750.97;;;9.22;78.11
76586;BME280;65251;51.022;13.736;2023-04-30T01:54:16;99769.56;;;9.22;78.24
76586;BME280;65251;51.022;13.736;2023-04-30T01:54:57;99770.97;;;9.18;77.68
76586;BME280;65251;51.022;13.736;2023-04-30T01:55:36;99753.09;;;9.12;77.78
76586;BME280;65251;51.022;13.736;2023-04-30T01:56:17;99767.22;;;9.13;77.23
76586;BME280;65251;51.022;13.736;2023-04-30T01:56:58;99766.56;;;9.11;77.99
76586;BME280;65251;51.022;13.736;2023-04-30T01:57:37;99765.09;;;9.08;77.61
76586;BME280;65251;51.022;13.736;2023-04-30T01:58:12;99770.59;;;9.07;77.91
76586;BME280;65251;51.022;13.736;2023-04-30T01:58:47;99776.56;;;9.09;77.33
76586;BME280;65251;51.022;13.736;2023-04-30T01:59:19;99767.66;;;9.02;77.40
76586;BME280;65251;51.022;13.736;2023-04-30T01:59:52;99765.28;;;9.07;77.47
76586;BME280;65251;51.022;13.736;2023-04-30T02:00:23;99775.91;;;9.07;77.21
76586;BME280;65251;51.022;13.736;2023-04-30T02:00:54;99767.28;;;9.05;77.77
76586;BME280;65251;51.022;13.736;2023-04-30T02:01:27;99767.66;;;9.02;77.39
76586;BME280;65251;51.022;13.736;2023-04-30T02:01:59;99773.16;;;9.00;77.66
76586;BME280;65251;51.022;13.736;2023-04-30T02:02:30;99767.75;;;8.93;77.57
76586;BME280;65251;51.022;13.736;2023-04-30T02:03:01;99771.06;;;8.95;78.24
76586;BME280;65251;51.022;13.736;2023-04-30T02:03:32;99776.38;;;8.95;77.29
76586;BME280;65251;51.022;13.736;2023-04-30T02:04:03;99773.91;;;8.94;78.43
76586;BME280;65251;51.022;13.736;2023-04-30T02:04:34;99778.03;;;8.96;78.12
76586;BME280;65251;51.022;13.736;2023-04-30T02:05:06;99773.25;;;8.92;77.36
76586;BME280;65251;51.022;13.736;2023-04-30T02:05:37;99777.91;;;8.90;77.99
76586;BME280;65251;51.022;13.736;2023-04-30T02:06:08;99779.75;;;8.89;78.08
76586;BME280;65251;51.022;13.736;2023-04-30T02:06:38;99782.59;;;8.88;78.30
76586;BME280;65251;51.022;13.736;2023-04-30T02:07:19;99775.97;;;8.84;78.00
76586;BME280;65251;51.022;13.736;2023-04-30T02:07:54;99774.69;;;8.80;77.48
76586;BME280;65251;51.022;13.736;2023-04-30T02:08:25;99785.13;;;8.81;78.31
76586;BME280;65251;51.022;13.736;2023-04-30T02:08:57;99786.97;;;8.81;77.74
76586;BME280;65251;51.022;13.736;2023-04-30T02:09:32;99781.19;;;8.77;77.79
76586;BME280;65251;51.022;13.736;2023-04-30T02:10:03;99785.13;;;8.81;77.78
76586;BME280;65251;51.022;13.736;2023-04-30T02:10:34;99789.63;;;8.81;77.59
76586;BME280;65251;51.022;13.736;2023-04-30T02:11:05;99788.16;;;8.78;77.42
76586;BME280;65251;51.022;13.736;2023-04-30T02:11:36;99783.84;;;8.77;77.22
76586;BME280;65251;51.022;13.736;2023-04-30T02:12:07;99792.66;;;8.78;77.86
76586;BME280;65251;51.022;13.736;2023-04-30T02:12:38;99790.19;;;8.76;77.45
76586;BME280;65251;51.022;13.736;2023-04-30T02:13:11;99786.69;;;8.76;77.98
76586;BME280;65251;51.022;13.736;2023-04-30T02:13:42;99786.88;;;8.74;77.78
76586;BME280;65251;51.022;13.736;2023-04-30T02:14:12;99787.06;;;8.73;77.06
76586;BME280;65251;51.022;13.736;2023-04-30T02:14:43;99789.06;;;8.71;77.08
76586;BME280;65251;51.022;13.736;2023-04-30T02:15:15;99798.03;;;8.70;77.84
76586;BME280;65251;51.022;13.736;2023-04-30T02:15:45;99799.22;;;8.67;77.02
76586;BME280;65251;51.022;13.736;2023-04-30T02:16:16;99802.03;;;8.66;77.12
76586;BME280;65251;51.022;13.736;2023-04-30T02:16:48;99802.22;;;8.64;77.49
76586;BME280;65251;51.022;13.736;2023-04-30T02:17:18;99801.56;;;8.62;77.34
76586;BME280;65251;51.022;13.736;2023-04-30T02:17:49;99812.84;;;8.64;77.18
76586;BME280;65251;51.022;13.736;2023-04-30T02:18:21;99800.91;;;8.60;77.31
76586;BME280;65251;51.022;13.736;2023-04-30T02:18:52;99806.63;;;8.57;77.49
76586;BME280;65251;51.022;13.736;2023-04-30T02:19:23;99810.28;;;8.56;77.64
76586;BME280;65251;51.022;13.736;2023-04-30T02:19:54;99801.31;;;8.57;77.59
76586;BME280;65251;51.022;13.736;2023-04-30T02:20:25;99812.47;;;8.52;77.59
76586;BME280;65251;51.022;13.736;2023-04-30T02:20:56;99813.75;;;8.56;77.18
76586;BME280;65251;51.022;13.736;2023-04-30T02:21:26;99805.97;;;8.55;77.56
76586;BME280;65251;51.022;13.736;2023-04-30T02:21:58;99803.66;;;8.52;77.10
76586;BME280;65251;51.022;13.736;2023-04-30T02:22:29;99810.28;;;8.56;76.97
76586;BME280;65251;51.022;13.736;2023-04-30T02:23:00;99811.28;;;8.55;77.64
76586;BME280;65251;51.022;13.736;2023-04-30T02:23:31;99810.63;;;8.53;77.07
76586;BME280;65251;51.022;13.736;2023-04-30T02:24:02;99803.84;;;8.50;76.99
76586;BME280;65251;51.022;13.736;2023-04-30T02:24:33;99811.97;;;8.49;77.40
76586;BME280;65251;51.022;13.736;2023-04-30T02:25:05;99806.50;;;8.50;77.38
76586;BME280;65251;51.022;13.736;2023-04-30T02:25:36;99810.50;;;8.46;77.47
76586;BME280;65251;51.022;13.736;2023-04-30T02:26:08;99816.63;;;8.47;77.14
76586;BME280;65251;51.022;13.736;2023-04-30T02:26:39;99808.03;;;8.45;77.34
76586;BME280;65251;51.022;13.736;2023-04-30T02:27:10;99814.91;;;8.39;77.10
76586;BME280;65251;51.022;13.736;2023-04-30T02:27:40;99821.81;;;8.40;77.14
76586;BME280;65251;51.022;13.736;2023-04-30T02:28:13;99811.41;;;8.39;77.37
76586;BME280;65251;51.022;13.736;2023-04-30T02:28:44;99823.22;;;8.36;78.22
76586;BME280;65251;51.022;13.736;2023-04-30T02:29:15;99818.91;;;8.35;77.56
76586;BME280;65251;51.022;13.736;2023-04-30T02:29:47;99819.72;;;8.36;77.54
76586;BME280;65251;51.022;13.736;2023-04-30T02:30:18;99817.91;;;8.36;77.48
76586;BME280;65251;51.022;13.736;2023-04-30T02:30:50;99825.22;;;8.34;77.71
76586;BME280;65251;51.022;13.736;2023-04-30T02:31:22;99818.91;;;8.35;77.39
76586;BME280;65251;51.022;13.736;2023-04-30T02:31:52;99824.38;;;8.34;77.42
76586;BME280;65251;51.022;13.736;2023-04-30T02:32:23;99824.56;;;8.32;77.54
76586;BME280;65251;51.022;13.736;2023-04-30T02:32:54;99824.69;;;8.30;77.71
76586;BME280;65251;51.022;13.736;2023-04-30T02:33:26;99822.88;;;8.31;77.47
76586;BME280;65251;51.022;13.736;2023-04-30T02:33:56;99828.34;;;8.29;77.74
76586;BME280;65251;51.022;13.736;2023-04-30T02:34:27;99822.56;;;8.26;77.87
76586;BME280;65251;51.022;13.736;2023-04-30T02:34:59;99825.41;;;8.24;77.75
76586;BME280;65251;51.022;13.736;2023-04-30T02:35:30;99824.56;;;8.24;77.97
76586;BME280;65251;51.022;13.736;2023-04-30T02:36:00;99832.53;;;8.24;77.82
76586;BME280;65251;51.022;13.736;2023-04-30T02:36:32;99831.69;;;8.23;77.93
76586;BME280;65251;51.022;13.736;2023-04-30T02:37:06;99831.88;;;8.22;77.86
76586;BME280;65251;51.022;13.736;2023-04-30T02:37:36;99828.22;;;8.23;77.90
76586;BME280;65251;51.022;13.736;2023-04-30T02:38:08;99832.69;;;8.22;77.66
76586;BME280;65251;51.022;13.736;2023-04-30T02:38:39;99828.78;;;8.18;77.82
76586;BME280;65251;51.022;13.736;2023-04-30T02:39:10;99830.88;;;8.23;77.85
76586;BME280;65251;51.022;13.736;2023-04-30T02:39:42;99833.72;;;8.21;77.94
76586;BME280;65251;51.022;13.736;2023-04-30T02:40:13;99830.88;;;8.23;77.76
76586;BME280;65251;51.022;13.736;2023-04-30T02:40:43;99834.09;;;8.18;78.23
76586;BME280;65251;51.022;13.736;2023-04-30T02:41:15;99829.78;;;8.17;77.98
76586;BME280;65251;51.022;13.736;2023-04-30T02:41:46;99829.78;;;8.17;78.36
76586;BME280;65251;51.022;13.736;2023-04-30T02:42:16;99831.59;;;8.17;78.15
76586;BME280;65251;51.022;13.736;2023-04-30T02:42:48;99835.09;;;8.17;77.91
76586;BME280;65251;51.022;13.736;2023-04-30T02:43:20;99832.06;;;8.20;78.17
76586;BME280;65251;51.022;13.736;2023-04-30T02:43:51;99834.72;;;8.20;77.78
76586;BME280;65251;51.022;13.736;2023-04-30T02:44:23;99840.66;;;8.22;78.01
76586;BME280;65251;51.022;13.736;2023-04-30T02:44:54;99837.84;;;8.24;77.70
76586;BME280;65251;51.022;13.736;2023-04-30T02:45:25;99843.31;;;8.22;77.50
76586;BME280;65251;51.022;13.736;2023-04-30T02:45:55;99842.31;;;8.23;77.73
76586;BME280;65251;51.022;13.736;2023-04-30T02:46:27;99840.50;;;8.24;77.97
76586;BME280;65251;51.022;13.736;2023-04-30T02:46:58;99841.31;;;8.24;77.51
76586;BME280;65251;51.022;13.736;2023-04-30T02:47:28;99838.84;;;8.23;77.62
76586;BME280;65251;51.022;13.736;2023-04-30T02:48:00;99842.16;;;8.25;77.67
76586;BME280;65251;51.022;13.736;2023-04-30T02:48:31;99841.50;;;8.23;77.65
76586;BME280;65251;51.022;13.736;2023-04-30T02:49:02;99845.63;;;8.25;77.40
76586;BME280;65251;51.022;13.736;2023-04-30T02:49:33;99841.31;;;8.24;77.59
76586;BME280;65251;51.022;13.736;2023-04-30T02:50:05;99844.81;;;8.25;77.41
76586;BME280;65251;51.022;13.736;2023-04-30T02:50:36;99838.84;;;8.23;77.55
76586;BME280;65251;51.022;13.736;2023-04-30T02:51:08;99841.50;;;8.23;77.36
76586;BME280;65251;51.022;13.736;2023-04-30T02:51:39;99843.97;;;8.24;77.19
76586;BME280;65251;51.022;13.736;2023-04-30T02:52:10;99843.16;;;8.24;77.23
76586;BME280;65251;51.022;13.736;2023-04-30T02:52:43;99846.81;;;8.23;77.38
76586;BME280;65251;51.022;13.736;2023-04-30T02:53:13;99842.31;;;8.23;77.38
76586;BME280;65251;51.022;13.736;2023-04-30T02:53:44;99838.84;;;8.23;77.28
76586;BME280;65251;51.022;13.736;2023-04-30T02:54:16;99851.94;;;8.24;77.32
76586;BME280;65251;51.022;13.736;2023-04-30T02:54:47;99840.50;;;8.24;77.21
76586;BME280;65251;51.022;13.736;2023-04-30T02:55:17;99847.81;;;8.22;76.97
76586;BME280;65251;51.022;13.736;2023-04-30T02:55:49;99853.13;;;8.22;77.22
76586;BME280;65251;51.022;13.736;2023-04-30T02:56:20;99847.34;;;8.18;77.31